Time;durP1;ratioP1;P1;durP2;ratioP2;P2;SDS_P1;SDS_P2;PMS_P1;PMS_P2;Temp;Humidity;BMP_temperature;BMP_pressure;BME280_temperature;BME280_humidity;BME280_pressure;Samples;Min_cycle;Max_cycle;Signal;HPM_P1;HPM_P2
2022/12/12 00:00:49;;;;;;;22.02;12.15;;;1.30;99.90;;;;;;5073338;28;20401;-71
2022/12/12 00:03:15;;;;;;;21.02;12.05;;;1.30;99.90;;;;;;5058576;28;20389;-71
2022/12/12 00:05:41;;;;;;;21.13;11.07;;;1.30;99.90;;;;;;5075216;28;20045;-71
2022/12/12 00:08:07;;;;;;;21.48;11.23;;;1.30;99.90;;;;;;5072646;28;20078;-71
2022/12/12 00:10:34;;;;;;;22.95;12.65;;;1.30;99.90;;;;;;5058512;28;20473;-71
2022/12/12 00:12:59;;;;;;;19.83;11.02;;;1.30;99.90;;;;;;5056773;28;20489;-71
2022/12/12 00:15:26;;;;;;;22.58;12.35;;;1.30;99.90;;;;;;5074885;28;20040;-71
2022/12/12 00:17:52;;;;;;;22.70;12.05;;;1.30;99.90;;;;;;5056626;28;20123;-71
2022/12/12 00:20:18;;;;;;;22.25;11.57;;;1.30;99.90;;;;;;5074900;28;20385;-71
2022/12/12 00:22:44;;;;;;;18.48;10.30;;;1.30;99.90;;;;;;5058294;28;20124;-71
2022/12/12 00:25:10;;;;;;;20.35;11.18;;;1.30;99.90;;;;;;5073780;28;20565;-71
2022/12/12 00:27:35;;;;;;;21.45;12.10;;;1.30;99.90;;;;;;5054601;28;20417;-71
2022/12/12 00:30:01;;;;;;;21.27;11.85;;;1.30;99.90;;;;;;5074753;28;20125;-71
2022/12/12 00:32:27;;;;;;;20.45;11.48;;;1.30;99.90;;;;;;5058204;28;20067;-71
2022/12/12 00:34:53;;;;;;;21.20;11.05;;;1.30;99.90;;;;;;5073918;28;20035;-71
2022/12/12 00:37:18;;;;;;;19.05;9.98;;;1.30;99.90;;;;;;5056624;28;20068;-71
2022/12/12 00:39:44;;;;;;;21.33;12.40;;;1.30;99.90;;;;;;5057973;28;20435;-71
2022/12/12 00:42:09;;;;;;;21.08;11.43;;;1.30;99.90;;;;;;5056971;28;20041;-71
2022/12/12 00:44:35;;;;;;;22.65;11.63;;;1.30;99.90;;;;;;5056232;28;20120;-71
2022/12/12 00:47:01;;;;;;;20.65;10.77;;;1.30;99.90;;;;;;5056040;28;20036;-71
2022/12/12 00:49:27;;;;;;;20.75;11.32;;;1.40;99.90;;;;;;5057606;28;20082;-71
2022/12/12 00:51:52;;;;;;;21.35;11.23;;;1.40;99.90;;;;;;5057728;28;20424;-71
2022/12/12 00:54:18;;;;;;;20.08;11.13;;;1.40;99.90;;;;;;5072729;28;20036;-71
2022/12/12 00:56:44;;;;;;;20.88;12.85;;;1.40;99.90;;;;;;5072469;28;20044;-71
2022/12/12 00:59:10;;;;;;;19.42;10.55;;;1.40;99.90;;;;;;5074025;28;20098;-71
2022/12/12 01:01:36;;;;;;;20.17;11.55;;;1.30;99.90;;;;;;5057899;28;20415;-71
2022/12/12 01:04:03;;;;;;;21.45;10.98;;;1.40;99.90;;;;;;5056177;28;20057;-71
2022/12/12 01:06:30;;;;;;;22.90;11.65;;;1.40;99.90;;;;;;5072698;28;20087;-71
2022/12/12 01:08:56;;;;;;;21.92;11.82;;;1.40;99.90;;;;;;5073958;28;20037;-71
2022/12/12 01:11:22;;;;;;;19.25;10.63;;;1.30;99.90;;;;;;5057690;28;20074;-71
2022/12/12 01:13:51;;;;;;;21.52;10.80;;;1.30;99.90;;;;;;5056256;28;20042;-71
2022/12/12 01:16:17;;;;;;;23.05;11.48;;;1.30;99.90;;;;;;5057222;28;20048;-71
2022/12/12 01:18:43;;;;;;;21.58;11.80;;;1.30;99.90;;;;;;5072512;28;20044;-71
2022/12/12 01:21:13;;;;;;;21.15;11.13;;;1.30;99.90;;;;;;5074075;28;20033;-71
2022/12/12 01:23:39;;;;;;;23.33;11.52;;;1.30;99.90;;;;;;5055886;28;20068;-71
2022/12/12 01:26:18;;;;;;;21.30;10.93;;;1.30;99.90;;;;;;5073695;28;20048;-71
2022/12/12 01:28:45;;;;;;;20.27;11.95;;;1.30;99.90;;;;;;5070124;28;20036;-71
2022/12/12 01:31:11;;;;;;;22.05;11.95;;;1.30;99.90;;;;;;5055832;28;20040;-71
2022/12/12 01:33:37;;;;;;;23.27;11.32;;;1.30;99.90;;;;;;5057145;28;20048;-71
2022/12/12 01:36:03;;;;;;;20.80;10.63;;;1.30;99.90;;;;;;5073566;28;20044;-71
2022/12/12 01:38:28;;;;;;;22.58;12.45;;;1.30;99.90;;;;;;5055566;28;20374;-71
2022/12/12 01:40:54;;;;;;;20.33;11.30;;;1.30;99.90;;;;;;5056822;28;20044;-71
2022/12/12 01:43:22;;;;;;;18.33;10.27;;;1.30;99.90;;;;;;5072220;28;20032;-71
2022/12/12 01:46:32;;;;;;;22.08;10.85;;;1.30;99.90;;;;;;5073289;28;20040;-71
2022/12/12 01:49:05;;;;;;;20.45;10.38;;;1.30;99.90;;;;;;5040513;28;20067;-71
2022/12/12 01:51:31;;;;;;;21.13;11.30;;;1.20;99.90;;;;;;5052362;28;20127;-71
2022/12/12 01:54:05;;;;;;;20.15;11.02;;;1.30;99.90;;;;;;5036628;28;20055;-71
2022/12/12 01:56:31;;;;;;;20.85;10.90;;;1.30;99.90;;;;;;5040507;28;20044;-71
2022/12/12 01:58:59;;;;;;;22.15;12.70;;;1.30;99.90;;;;;;5055057;28;20420;-71
2022/12/12 02:01:24;;;;;;;22.05;11.43;;;1.40;99.90;;;;;;5073222;28;20042;-71
2022/12/12 02:03:51;;;;;;;19.73;10.98;;;1.30;99.90;;;;;;5071937;28;20120;-71
2022/12/12 02:06:25;;;;;;;20.88;11.07;;;1.30;99.90;;;;;;5056198;28;20087;-71
2022/12/12 02:08:54;;;;;;;20.75;11.10;;;1.30;99.90;;;;;;5071366;28;20082;-71
2022/12/12 02:11:20;;;;;;;20.60;11.50;;;1.30;99.90;;;;;;5056112;28;20511;-71
2022/12/12 02:13:46;;;;;;;19.95;10.48;;;1.30;99.90;;;;;;5049787;28;20120;-71
2022/12/12 02:16:37;;;;;;;22.77;11.05;;;1.40;99.90;;;;;;5072701;28;20045;-71
2022/12/12 02:19:25;;;;;;;20.58;10.48;;;1.40;99.90;;;;;;5054420;28;20047;-71
2022/12/12 02:22:24;;;;;;;22.23;11.75;;;1.40;99.90;;;;;;5056016;28;20033;-71
2022/12/12 02:25:08;;;;;;;21.83;11.23;;;1.40;99.90;;;;;;5071502;28;20082;-71
2022/12/12 02:28:04;;;;;;;22.70;10.73;;;1.40;99.90;;;;;;5053903;28;20047;-71
2022/12/12 02:30:46;;;;;;;21.23;11.23;;;1.30;99.90;;;;;;5072662;28;20099;-71
2022/12/12 02:33:24;;;;;;;20.92;11.23;;;1.40;99.90;;;;;;5070858;28;20501;-71
2022/12/12 02:35:58;;;;;;;20.75;10.48;;;1.30;99.90;;;;;;5072457;28;20048;-71
2022/12/12 02:38:28;;;;;;;20.13;10.60;;;1.40;99.90;;;;;;5071193;28;20044;-71
2022/12/12 02:41:14;;;;;;;19.73;10.55;;;1.40;99.90;;;;;;5035310;28;20049;-71
2022/12/12 02:43:58;;;;;;;23.92;10.85;;;1.40;99.90;;;;;;5051216;28;20040;-71
2022/12/12 02:46:31;;;;;;;22.38;10.50;;;1.40;99.90;;;;;;5071158;28;20040;-71
2022/12/12 02:49:01;;;;;;;21.80;11.02;;;1.30;99.90;;;;;;5054439;28;20134;-71
2022/12/12 02:51:29;;;;;;;20.42;10.93;;;1.30;99.90;;;;;;5055616;28;20104;-71
2022/12/12 02:53:57;;;;;;;19.98;11.13;;;1.30;99.90;;;;;;5071148;28;20051;-71
2022/12/12 02:56:45;;;;;;;21.20;11.35;;;1.30;99.90;;;;;;5072279;28;20055;-71
2022/12/12 02:59:16;;;;;;;20.02;10.98;;;1.20;99.90;;;;;;5053118;28;20072;-71
2022/12/12 03:02:06;;;;;;;22.33;11.00;;;1.20;99.90;;;;;;5055421;28;20115;-71
2022/12/12 03:08:38;;;;;;;21.00;11.70;;;1.20;99.90;;;;;;5018869;28;20044;-71
2022/12/12 03:11:23;;;;;;;20.95;10.57;;;1.20;99.90;;;;;;4959520;28;20084;-71
2022/12/12 03:14:00;;;;;;;20.25;10.45;;;1.20;99.90;;;;;;5053558;28;20044;-71
2022/12/12 03:16:58;;;;;;;19.98;10.82;;;1.10;99.90;;;;;;5069830;28;20089;-71
2022/12/12 03:19:52;;;;;;;20.13;10.10;;;1.10;99.90;;;;;;5053823;28;20401;-71
2022/12/12 03:22:36;;;;;;;20.27;10.35;;;1.10;99.90;;;;;;5072132;28;20082;-71
2022/12/12 03:25:17;;;;;;;20.80;10.65;;;1.10;99.90;;;;;;5071069;28;20048;-71
2022/12/12 03:28:08;;;;;;;21.42;10.90;;;1.10;99.90;;;;;;5069306;28;20037;-71
2022/12/12 03:30:40;;;;;;;19.57;10.43;;;1.10;99.90;;;;;;5055031;28;20493;-71
2022/12/12 03:33:12;;;;;;;21.27;11.57;;;1.10;99.90;;;;;;5070756;28;20332;-71
2022/12/12 03:35:45;;;;;;;20.10;10.32;;;1.10;99.90;;;;;;5071937;28;20082;-71
2022/12/12 03:38:18;;;;;;;19.88;10.27;;;1.10;99.90;;;;;;5070475;28;20037;-71
2022/12/12 03:40:50;;;;;;;21.90;11.55;;;1.10;99.90;;;;;;5071508;28;20086;-71
2022/12/12 03:43:20;;;;;;;21.20;10.68;;;1.10;99.90;;;;;;5070902;28;20037;-71
2022/12/12 03:45:56;;;;;;;20.08;10.40;;;1.10;99.90;;;;;;5054994;28;20028;-71
2022/12/12 03:48:28;;;;;;;20.02;10.27;;;1.10;99.90;;;;;;5070229;28;20043;-71
2022/12/12 03:51:06;;;;;;;22.52;10.98;;;1.10;99.90;;;;;;5054788;28;20036;-71
2022/12/12 03:54:03;;;;;;;18.90;10.73;;;1.10;99.90;;;;;;5068706;28;20049;-71
2022/12/12 03:56:51;;;;;;;19.20;10.07;;;1.10;99.90;;;;;;5053662;28;20056;-71
2022/12/12 03:59:27;;;;;;;19.58;10.52;;;1.10;99.90;;;;;;5053441;28;20064;-71
2022/12/12 04:02:17;;;;;;;20.30;11.90;;;1.10;99.90;;;;;;5071651;28;20042;-71
2022/12/12 04:05:07;;;;;;;21.67;11.23;;;1.10;99.90;;;;;;5069847;28;20052;-71
2022/12/12 04:07:55;;;;;;;19.65;10.25;;;1.10;99.90;;;;;;5071488;28;20041;-71
2022/12/12 04:13:22;;;;;;;18.75;10.63;;;1.10;99.90;;;;;;5069916;28;20044;-71
2022/12/12 04:15:59;;;;;;;20.08;9.98;;;1.10;99.90;;;;;;5071360;28;20040;-71
2022/12/12 04:18:50;;;;;;;19.35;10.45;;;1.10;99.90;;;;;;5057510;28;20468;-71
2022/12/12 04:24:41;;;;;;;19.48;10.27;;;1.00;99.90;;;;;;5073476;28;20066;-71
2022/12/12 04:27:19;;;;;;;20.80;11.00;;;1.10;99.90;;;;;;5058503;28;20040;-71
2022/12/12 04:29:58;;;;;;;22.60;11.70;;;1.10;99.90;;;;;;5058115;28;20044;-71
2022/12/12 04:32:35;;;;;;;23.75;13.57;;;1.10;99.90;;;;;;5055119;28;20120;-72
2022/12/12 04:35:25;;;;;;;21.13;10.70;;;1.10;99.90;;;;;;5057873;28;20036;-71
2022/12/12 04:37:53;;;;;;;19.95;9.93;;;1.20;99.90;;;;;;5034866;28;20042;-71
2022/12/12 04:40:36;;;;;;;21.95;11.45;;;1.20;99.90;;;;;;5019490;28;20124;-71
2022/12/12 04:43:16;;;;;;;21.05;11.50;;;1.20;99.90;;;;;;5074556;28;20111;-71
2022/12/12 04:45:49;;;;;;;21.08;10.80;;;1.20;99.90;;;;;;5018363;28;20422;-71
2022/12/12 04:48:19;;;;;;;21.27;10.63;;;1.20;99.90;;;;;;5018220;28;20045;-71
2022/12/12 04:50:48;;;;;;;22.48;11.18;;;1.20;99.90;;;;;;5042315;28;20045;-71
2022/12/12 04:53:19;;;;;;;20.88;11.10;;;1.20;99.90;;;;;;5074355;28;20040;-71
2022/12/12 04:55:53;;;;;;;22.67;12.20;;;1.20;99.90;;;;;;5073337;28;20041;-71
2022/12/12 04:58:19;;;;;;;21.15;11.02;;;1.10;99.90;;;;;;5057548;28;20044;-71
2022/12/12 05:00:50;;;;;;;20.13;10.60;;;1.10;99.90;;;;;;5055991;28;20230;-71
2022/12/12 05:03:23;;;;;;;21.75;11.00;;;1.20;99.90;;;;;;5072343;28;20497;-71
2022/12/12 05:05:52;;;;;;;21.33;10.18;;;1.10;99.90;;;;;;5073159;28;20044;-71
2022/12/12 05:08:33;;;;;;;19.48;11.18;;;1.10;99.90;;;;;;5057437;28;20042;-71
2022/12/12 05:11:01;;;;;;;21.77;11.73;;;1.10;99.90;;;;;;5069941;28;20491;-71
2022/12/12 05:13:35;;;;;;;19.52;10.48;;;1.10;99.90;;;;;;5073969;28;20033;-71
2022/12/12 05:16:20;;;;;;;20.13;11.10;;;1.10;99.90;;;;;;5074240;28;20044;-71
2022/12/12 05:18:46;;;;;;;19.60;10.05;;;1.10;99.90;;;;;;5072809;28;20048;-71
2022/12/12 05:21:12;;;;;;;20.38;11.02;;;1.10;99.90;;;;;;5072330;28;20033;-71
2022/12/12 05:23:38;;;;;;;19.58;10.68;;;1.10;99.90;;;;;;5057390;28;20071;-71
2022/12/12 05:26:09;;;;;;;23.90;11.85;;;1.10;99.90;;;;;;5073722;28;20094;-71
2022/12/12 05:28:35;;;;;;;24.10;11.40;;;1.20;99.90;;;;;;5054370;28;20037;-71
2022/12/12 05:31:00;;;;;;;20.63;11.50;;;1.20;99.90;;;;;;5073545;28;20047;-71
2022/12/12 05:33:26;;;;;;;20.70;10.98;;;1.20;99.90;;;;;;5073647;28;20123;-71
2022/12/12 05:35:51;;;;;;;21.60;11.60;;;1.20;99.90;;;;;;5073862;28;20058;-71
2022/12/12 05:38:17;;;;;;;21.50;12.00;;;1.20;99.90;;;;;;5055240;28;20033;-71
2022/12/12 05:40:43;;;;;;;22.77;11.55;;;1.20;99.90;;;;;;5073233;28;20048;-71
2022/12/12 05:43:08;;;;;;;21.40;11.77;;;1.20;99.90;;;;;;5072166;28;20040;-72
2022/12/12 05:45:34;;;;;;;20.17;10.52;;;1.10;99.90;;;;;;5056653;28;20036;-71
2022/12/12 05:47:59;;;;;;;20.85;11.13;;;1.20;99.90;;;;;;5055286;28;20396;-69
2022/12/12 05:50:25;;;;;;;21.75;11.57;;;1.20;99.90;;;;;;5073148;28;20044;-69
2022/12/12 05:52:50;;;;;;;22.48;11.77;;;1.30;99.90;;;;;;5056426;28;20047;-69
2022/12/12 05:55:16;;;;;;;22.42;11.13;;;1.20;99.90;;;;;;5056468;28;20098;-69
2022/12/12 05:57:41;;;;;;;21.45;12.15;;;1.20;99.90;;;;;;5073060;28;20045;-70
2022/12/12 06:00:08;;;;;;;22.00;11.35;;;1.20;99.90;;;;;;5069231;28;20050;-70
2022/12/12 06:02:33;;;;;;;23.73;14.13;;;1.20;99.90;;;;;;5072979;28;20032;-70
2022/12/12 06:04:59;;;;;;;39.05;25.38;;;1.30;99.90;;;;;;5056242;28;20048;-70
2022/12/12 06:07:24;;;;;;;42.38;27.50;;;1.20;99.90;;;;;;5056548;28;20078;-69
2022/12/12 06:09:50;;;;;;;41.38;27.25;;;1.20;99.90;;;;;;5071307;28;20036;-70
2022/12/12 06:12:15;;;;;;;35.47;23.65;;;1.20;99.90;;;;;;5071653;28;20413;-69
2022/12/12 06:14:41;;;;;;;28.45;16.98;;;1.20;99.90;;;;;;5070900;28;20062;-69
2022/12/12 06:17:07;;;;;;;20.85;11.63;;;1.20;99.90;;;;;;5056119;28;20126;-70
2022/12/12 06:19:32;;;;;;;27.08;15.20;;;1.20;99.90;;;;;;5072538;28;20067;-70
2022/12/12 06:21:58;;;;;;;29.10;17.30;;;1.20;99.90;;;;;;5055899;28;20037;-70
2022/12/12 06:24:23;;;;;;;24.33;14.40;;;1.20;99.90;;;;;;5051254;28;20416;-70
2022/12/12 06:26:49;;;;;;;25.27;13.30;;;1.20;99.90;;;;;;5033460;28;20460;-70
2022/12/12 06:29:14;;;;;;;22.20;11.75;;;1.20;99.90;;;;;;5016262;28;20049;-69
2022/12/12 06:31:40;;;;;;;23.38;11.68;;;1.10;99.90;;;;;;5049125;28;20052;-69
2022/12/12 06:34:06;;;;;;;20.27;11.07;;;1.10;99.90;;;;;;5058690;28;20040;-70
2022/12/12 06:36:32;;;;;;;22.65;12.07;;;1.10;99.90;;;;;;5054014;28;20037;-70
2022/12/12 06:38:59;;;;;;;19.45;10.30;;;1.10;99.90;;;;;;5055252;28;20087;-70
2022/12/12 06:41:26;;;;;;;22.73;12.05;;;1.10;99.90;;;;;;5055813;28;20052;-70
2022/12/12 06:43:52;;;;;;;21.90;11.35;;;1.10;99.90;;;;;;5054532;28;20082;-70
2022/12/12 06:46:22;;;;;;;22.83;11.95;;;1.10;99.90;;;;;;5053967;28;20047;-70
2022/12/12 06:48:48;;;;;;;21.40;12.40;;;1.10;99.90;;;;;;5072481;28;20037;-71
2022/12/12 06:51:17;;;;;;;22.25;11.93;;;1.10;99.90;;;;;;5051321;28;20043;-70
2022/12/12 06:53:43;;;;;;;23.58;12.25;;;1.10;99.90;;;;;;5067207;28;20037;-70
2022/12/12 06:56:16;;;;;;;22.23;11.45;;;1.10;99.90;;;;;;5072450;28;20043;-70
2022/12/12 06:58:43;;;;;;;20.38;10.95;;;1.10;99.90;;;;;;5072375;28;20135;-70
2022/12/12 07:01:11;;;;;;;19.70;10.82;;;1.10;99.90;;;;;;5055402;28;20149;-70
2022/12/12 07:03:36;;;;;;;21.33;11.55;;;1.10;99.90;;;;;;5070654;28;20060;-70
2022/12/12 07:06:02;;;;;;;19.77;10.77;;;1.10;99.90;;;;;;5070591;28;20119;-70
2022/12/12 07:08:28;;;;;;;20.85;11.07;;;1.10;99.90;;;;;;5071928;28;20053;-70
2022/12/12 07:10:55;;;;;;;19.58;10.80;;;1.20;99.90;;;;;;5072241;28;20037;-70
2022/12/12 07:13:21;;;;;;;20.25;11.57;;;1.20;99.90;;;;;;5054101;28;20066;-70
2022/12/12 07:15:49;;;;;;;20.38;11.25;;;1.10;99.90;;;;;;5070498;28;20041;-70
2022/12/12 07:18:16;;;;;;;18.98;10.38;;;1.00;99.90;;;;;;5071952;28;20540;-70
2022/12/12 07:20:43;;;;;;;20.13;10.77;;;1.00;99.90;;;;;;5055052;28;20079;-70
2022/12/12 07:23:10;;;;;;;21.25;10.73;;;1.00;99.90;;;;;;5069916;28;20036;-70
2022/12/12 07:25:40;;;;;;;24.15;11.05;;;1.00;99.90;;;;;;5053245;28;20071;-70
2022/12/12 07:28:07;;;;;;;20.77;10.63;;;0.90;99.90;;;;;;5055149;28;20032;-70
2022/12/12 07:30:33;;;;;;;19.90;10.30;;;0.90;99.90;;;;;;5055290;28;20139;-70
2022/12/12 07:32:58;;;;;;;21.60;12.30;;;0.90;99.90;;;;;;5052099;28;20120;-70
2022/12/12 07:35:24;;;;;;;22.83;11.13;;;0.90;99.90;;;;;;5066769;28;20044;-70
2022/12/12 07:37:50;;;;;;;20.38;11.50;;;0.90;99.90;;;;;;5054984;28;20075;-70
2022/12/12 07:40:16;;;;;;;20.48;10.60;;;0.90;99.90;;;;;;5071588;28;20053;-70
2022/12/12 07:42:42;;;;;;;20.38;10.43;;;0.90;99.90;;;;;;5045258;28;20493;-70
2022/12/12 07:45:08;;;;;;;19.08;10.70;;;0.90;99.90;;;;;;5057245;28;20036;-70
2022/12/12 07:47:33;;;;;;;19.20;10.57;;;0.90;99.90;;;;;;5051442;28;20033;-70
2022/12/12 07:49:59;;;;;;;19.75;11.02;;;0.90;99.90;;;;;;5044082;28;20045;-70
2022/12/12 07:52:24;;;;;;;22.33;11.27;;;0.90;99.90;;;;;;5057664;28;20043;-70
2022/12/12 07:54:50;;;;;;;19.95;10.75;;;0.90;99.90;;;;;;5043520;28;20097;-70
2022/12/12 07:57:16;;;;;;;21.60;11.77;;;0.90;99.90;;;;;;5055437;28;20041;-70
2022/12/12 07:59:41;;;;;;;20.27;11.30;;;0.90;99.90;;;;;;5039043;28;20456;-70
2022/12/12 08:02:08;;;;;;;19.48;11.27;;;0.90;99.90;;;;;;5038425;28;20052;-71
2022/12/12 08:04:34;;;;;;;21.65;11.45;;;1.00;99.90;;;;;;5037944;28;20123;-70
2022/12/12 08:07:00;;;;;;;19.75;11.35;;;1.00;99.90;;;;;;5038200;28;20132;-71
2022/12/12 08:09:25;;;;;;;20.63;11.20;;;1.00;99.90;;;;;;5038027;28;20041;-71
2022/12/12 08:11:55;;;;;;;20.60;11.85;;;1.00;99.90;;;;;;5042870;28;20404;-70
2022/12/12 08:14:21;;;;;;;22.27;12.65;;;1.00;99.90;;;;;;5049992;28;20068;-70
2022/12/12 08:16:47;;;;;;;20.70;11.32;;;0.90;99.90;;;;;;5027916;28;20129;-70
2022/12/12 08:19:12;;;;;;;19.05;10.40;;;0.90;99.90;;;;;;5060231;28;20424;-77
2022/12/12 08:21:38;;;;;;;16.90;8.30;;;0.90;99.90;;;;;;5042680;28;20136;-79
2022/12/12 08:24:03;;;;;;;21.50;11.57;;;1.10;99.90;;;;;;5054078;28;20043;-72
2022/12/12 08:26:29;;;;;;;24.42;10.93;;;1.20;99.90;;;;;;5037504;28;20035;-71
2022/12/12 08:28:56;;;;;;;19.35;10.80;;;1.20;99.90;;;;;;5062333;28;20504;-69
2022/12/12 08:31:22;;;;;;;22.02;12.40;;;1.30;99.90;;;;;;5042656;28;20044;-69
2022/12/12 08:33:52;;;;;;;23.60;11.80;;;1.30;99.90;;;;;;5030396;28;20119;-72
2022/12/12 08:36:23;;;;;;;26.92;11.52;;;1.30;99.90;;;;;;5055132;28;20420;-77
2022/12/12 08:38:50;;;;;;;21.65;11.18;;;1.40;99.90;;;;;;5020079;28;20087;-71
2022/12/12 08:41:17;;;;;;;19.73;10.80;;;1.60;99.90;;;;;;5060484;28;20058;-69
2022/12/12 08:43:44;;;;;;;17.92;10.25;;;1.60;99.90;;;;;;5049284;28;20077;-70
2022/12/12 08:46:14;;;;;;;19.88;10.98;;;1.60;99.90;;;;;;5050121;28;20063;-71
2022/12/12 08:48:40;;;;;;;19.73;10.73;;;1.50;99.90;;;;;;5046420;28;20073;-70
2022/12/12 08:51:05;;;;;;;21.75;11.13;;;1.50;99.90;;;;;;5064264;28;20083;-71
2022/12/12 08:53:31;;;;;;;20.02;11.63;;;1.40;99.90;;;;;;5053803;28;20033;-71
2022/12/12 08:55:57;;;;;;;21.02;11.48;;;1.40;99.90;;;;;;5068450;28;20048;-71
2022/12/12 08:58:22;;;;;;;19.52;10.57;;;1.40;99.90;;;;;;5059390;28;20040;-71
2022/12/12 09:00:48;;;;;;;18.85;10.77;;;1.30;99.90;;;;;;5069810;28;20063;-71
2022/12/12 09:03:16;;;;;;;19.75;10.48;;;1.30;99.90;;;;;;5053356;28;20040;-71
2022/12/12 09:05:43;;;;;;;19.20;10.88;;;1.30;99.90;;;;;;5052629;28;20046;-71
2022/12/12 09:08:09;;;;;;;19.17;10.23;;;1.30;99.90;;;;;;5055028;28;20394;-71
2022/12/12 09:10:34;;;;;;;20.55;10.68;;;1.30;99.90;;;;;;5031933;28;20041;-71
2022/12/12 09:13:00;;;;;;;20.50;10.55;;;1.30;99.90;;;;;;5036120;28;20041;-71
2022/12/12 09:15:26;;;;;;;18.30;10.48;;;1.30;99.90;;;;;;5058618;28;20045;-71
2022/12/12 09:17:51;;;;;;;21.98;11.48;;;1.30;99.90;;;;;;5021550;28;20077;-71
2022/12/12 09:20:17;;;;;;;18.77;10.15;;;1.30;99.90;;;;;;5030825;28;20445;-71
2022/12/12 09:22:42;;;;;;;19.55;11.00;;;1.30;99.90;;;;;;5061101;28;20036;-71
2022/12/12 09:25:09;;;;;;;19.42;10.95;;;1.30;99.90;;;;;;5047724;28;20503;-71
2022/12/12 09:27:35;;;;;;;20.13;10.35;;;1.30;99.90;;;;;;5049533;28;20036;-71
2022/12/12 09:30:00;;;;;;;17.92;10.57;;;1.30;99.90;;;;;;5062388;28;20404;-71
2022/12/12 09:32:26;;;;;;;20.77;11.10;;;1.30;99.90;;;;;;5044845;28;20124;-71
2022/12/12 09:34:51;;;;;;;19.17;11.10;;;1.30;99.90;;;;;;5055543;28;20066;-71
2022/12/12 09:37:17;;;;;;;18.10;10.45;;;1.30;99.90;;;;;;5055329;28;20048;-75
2022/12/12 09:39:43;;;;;;;19.63;11.05;;;1.40;99.90;;;;;;5052299;28;20098;-71
2022/12/12 09:42:37;;;;;;;20.35;12.25;;;1.40;99.90;;;;;;5053937;28;20024;-71
2022/12/12 09:45:06;;;;;;;19.23;10.95;;;1.40;99.90;;;;;;5061080;28;20087;-71
2022/12/12 09:47:34;;;;;;;19.45;11.40;;;1.40;99.90;;;;;;5066194;28;20025;-70
2022/12/12 09:50:26;;;;;;;19.48;10.82;;;1.40;99.90;;;;;;5045813;28;20048;-70
2022/12/12 09:52:56;;;;;;;20.90;11.73;;;1.40;99.90;;;;;;5044682;28;20051;-70
2022/12/12 09:55:44;;;;;;;29.05;15.95;;;1.40;99.90;;;;;;5025871;28;20500;-70
2022/12/12 09:58:33;;;;;;;25.45;13.27;;;1.40;99.90;;;;;;5057002;28;20044;-70
2022/12/12 10:01:04;;;;;;;23.42;12.10;;;1.40;99.90;;;;;;5051556;28;20041;-70
2022/12/12 10:03:43;;;;;;;20.13;12.13;;;1.40;99.90;;;;;;5052971;28;20053;-70
2022/12/12 10:06:11;;;;;;;21.73;12.75;;;1.40;99.90;;;;;;5052364;28;20280;-70
2022/12/12 10:08:53;;;;;;;23.00;12.50;;;1.50;99.90;;;;;;5052434;28;20122;-70
2022/12/12 10:14:26;;;;;;;22.63;12.93;;;1.50;99.90;;;;;;5052744;28;20044;-70
2022/12/12 10:16:55;;;;;;;20.55;12.10;;;1.50;99.90;;;;;;5035921;28;20041;-69
2022/12/12 10:19:26;;;;;;;23.75;12.77;;;1.50;99.90;;;;;;5035944;28;20477;-69
2022/12/12 10:21:55;;;;;;;20.58;12.00;;;1.50;99.90;;;;;;5052579;28;20037;-69
2022/12/12 10:24:38;;;;;;;18.17;10.77;;;1.60;99.90;;;;;;5035822;28;20481;-69
2022/12/12 10:27:12;;;;;;;19.48;10.15;;;1.60;99.90;;;;;;5035727;28;20051;-69
2022/12/12 10:29:46;;;;;;;19.55;9.85;;;1.90;99.90;;;;;;5035568;28;20166;-68
2022/12/12 10:32:25;;;;;;;18.92;10.80;;;2.00;99.90;;;;;;5035473;28;20033;-69
2022/12/12 10:35:02;;;;;;;17.63;10.00;;;1.90;99.90;;;;;;5034564;28;20040;-69
2022/12/12 10:37:57;;;;;;;20.73;10.80;;;1.90;99.90;;;;;;5034635;28;20055;-69
2022/12/12 10:40:53;;;;;;;19.15;10.30;;;1.80;99.90;;;;;;5051399;28;20452;-69
2022/12/12 10:43:25;;;;;;;21.63;10.82;;;1.90;99.90;;;;;;5044531;28;20040;-69
2022/12/12 10:46:09;;;;;;;20.55;10.90;;;1.90;99.90;;;;;;5052210;28;20512;-69
2022/12/12 10:48:34;;;;;;;20.85;11.57;;;1.90;99.90;;;;;;5049137;28;20042;-69
2022/12/12 10:51:04;;;;;;;21.80;11.18;;;1.90;99.90;;;;;;5058867;28;20485;-70
2022/12/12 10:53:31;;;;;;;19.48;10.55;;;1.90;99.90;;;;;;5065612;28;20047;-70
2022/12/12 10:56:08;;;;;;;24.95;11.93;;;2.10;99.90;;;;;;5053743;28;20043;-69
2022/12/12 10:58:42;;;;;;;22.98;12.68;;;2.10;99.90;;;;;;5050994;28;20048;-69
2022/12/12 11:01:20;;;;;;;22.40;12.60;;;2.10;99.90;;;;;;5058528;28;20576;-69
2022/12/12 11:03:48;;;;;;;24.55;13.32;;;2.10;99.90;;;;;;5054005;28;20056;-70
2022/12/12 11:06:34;;;;;;;23.90;13.48;;;2.00;99.90;;;;;;5051444;28;20044;-70
2022/12/12 11:09:19;;;;;;;21.65;12.48;;;2.10;99.90;;;;;;5035167;28;20037;-70
2022/12/12 11:12:00;;;;;;;26.08;14.15;;;2.20;99.90;;;;;;5035597;28;20102;-69
2022/12/12 11:14:39;;;;;;;24.40;12.85;;;2.20;99.90;;;;;;5051176;28;20124;-69
2022/12/12 11:17:27;;;;;;;24.20;13.77;;;2.00;99.90;;;;;;5051415;28;20041;-70
2022/12/12 11:19:56;;;;;;;25.08;14.02;;;2.00;99.90;;;;;;5035063;28;20044;-70
2022/12/12 11:22:22;;;;;;;25.77;13.68;;;1.90;99.90;;;;;;5034782;28;20128;-69
2022/12/12 11:24:49;;;;;;;26.55;14.55;;;2.00;99.90;;;;;;5035899;28;20432;-69
2022/12/12 11:27:27;;;;;;;25.95;14.00;;;2.00;99.90;;;;;;5041112;28;20489;-69
2022/12/12 11:30:20;;;;;;;26.52;14.00;;;2.00;99.90;;;;;;5057956;28;20086;-69
2022/12/12 11:32:47;;;;;;;24.42;13.35;;;2.00;99.90;;;;;;5038458;28;20041;-69
2022/12/12 11:35:28;;;;;;;26.73;13.77;;;2.00;99.90;;;;;;5037914;28;20037;-69
2022/12/12 11:37:59;;;;;;;22.42;13.30;;;2.10;99.90;;;;;;5021766;28;20375;-69
2022/12/12 11:40:29;;;;;;;25.05;13.38;;;2.10;99.90;;;;;;5038308;28;20052;-70
2022/12/12 11:43:13;;;;;;;23.15;12.60;;;2.10;99.90;;;;;;5021451;28;20103;-69
2022/12/12 11:45:39;;;;;;;24.58;13.13;;;2.10;99.90;;;;;;5055524;28;20124;-69
2022/12/12 11:48:53;;;;;;;24.40;12.73;;;2.10;99.90;;;;;;5074213;28;20116;-70
2022/12/12 11:51:33;;;;;;;23.55;13.02;;;2.20;99.90;;;;;;5028922;28;20056;-69
2022/12/12 11:54:01;;;;;;;21.25;11.70;;;2.20;99.90;;;;;;5041569;28;20090;-69
2022/12/12 11:57:09;;;;;;;24.65;12.85;;;2.20;99.90;;;;;;5058027;28;20048;-69
2022/12/12 11:59:38;;;;;;;22.70;12.82;;;2.30;99.90;;;;;;4961838;28;20085;-69
2022/12/12 12:02:28;;;;;;;23.08;12.95;;;2.20;99.90;;;;;;4962417;28;20082;-69
2022/12/12 12:05:15;;;;;;;22.25;10.68;;;2.10;99.90;;;;;;5025846;28;20045;-69
2022/12/12 12:07:46;;;;;;;20.55;11.52;;;2.20;99.90;;;;;;5041017;28;20033;-70
2022/12/12 12:10:25;;;;;;;20.67;11.93;;;2.20;99.90;;;;;;5040885;28;20044;-69
2022/12/12 12:13:09;;;;;;;20.92;11.90;;;2.20;99.90;;;;;;5041385;28;20051;-69
2022/12/12 12:15:47;;;;;;;21.85;12.50;;;2.20;99.90;;;;;;5057359;28;20515;-69
2022/12/12 12:18:31;;;;;;;21.80;11.68;;;2.00;99.90;;;;;;5040936;28;20136;-69
2022/12/12 12:21:03;;;;;;;22.58;12.45;;;2.00;99.90;;;;;;5041216;28;20053;-69
2022/12/12 12:23:46;;;;;;;20.58;10.68;;;2.10;99.90;;;;;;5037573;28;20044;-69
2022/12/12 12:26:24;;;;;;;21.25;11.18;;;2.20;99.90;;;;;;5026667;28;20037;-70
2022/12/12 12:29:07;;;;;;;20.88;11.68;;;2.20;99.90;;;;;;5041144;28;20040;-70
2022/12/12 12:32:02;;;;;;;22.55;12.60;;;2.20;99.90;;;;;;5055184;28;20087;-69
2022/12/12 12:34:49;;;;;;;24.45;12.10;;;2.20;99.90;;;;;;5074306;28;20145;-69
2022/12/12 12:37:50;;;;;;;18.70;8.23;;;2.10;99.90;;;;;;5020012;28;20043;-69
2022/12/12 12:40:29;;;;;;;20.80;11.50;;;2.30;99.90;;;;;;5052842;28;20049;-69
2022/12/12 12:43:19;;;;;;;20.98;10.88;;;2.30;99.90;;;;;;5072874;28;20032;-69
2022/12/12 12:46:05;;;;;;;18.65;10.70;;;2.20;99.90;;;;;;5040637;28;20043;-70
2022/12/12 12:48:44;;;;;;;22.27;10.85;;;2.20;99.90;;;;;;5049982;28;20033;-70
2022/12/12 12:52:00;;;;;;;18.77;10.25;;;2.20;99.90;;;;;;5056409;28;20043;-69
2022/12/12 12:54:38;;;;;;;20.13;11.10;;;2.30;99.90;;;;;;4975982;28;20066;-69
2022/12/12 12:57:08;;;;;;;17.20;7.63;;;2.20;99.90;;;;;;4968886;28;20042;-69
2022/12/12 12:59:37;;;;;;;21.33;10.88;;;2.30;99.90;;;;;;5042259;28;20120;-69
2022/12/12 13:02:32;;;;;;;24.40;12.48;;;2.30;99.90;;;;;;5071872;28;20037;-69
2022/12/12 13:05:10;;;;;;;19.45;10.30;;;2.30;99.90;;;;;;5038572;28;20057;-69
2022/12/12 13:07:40;;;;;;;21.42;12.27;;;2.20;99.90;;;;;;5055900;28;20039;-69
2022/12/12 13:10:12;;;;;;;22.83;11.70;;;2.20;99.90;;;;;;5055799;28;20045;-69
2022/12/12 13:12:46;;;;;;;21.70;11.60;;;2.10;99.90;;;;;;5062202;28;20072;-69
2022/12/12 13:15:20;;;;;;;23.33;12.65;;;2.20;99.90;;;;;;5056114;28;20033;-69
2022/12/12 13:17:51;;;;;;;24.83;13.75;;;2.10;99.90;;;;;;5050116;28;20052;-69